Time;durP1;ratioP1;P1;durP2;ratioP2;P2;SDS_P1;SDS_P2;PMS_P1;PMS_P2;Temp;Humidity;BMP_temperature;BMP_pressure;BME280_temperature;BME280_humidity;BME280_pressure;Samples;Min_cycle;Max_cycle;Signal;HPM_P1;HPM_P2
2023/12/11 00:02:55;;;;;;;30.67;5.32;;;;;;;8.62;100.00;99637.50;10446641;28;20052;-82
2023/12/11 00:07:56;;;;;;;24.40;3.13;;;;;;;8.43;100.00;99623.78;10443763;28;20056;-81
2023/12/11 00:12:56;;;;;;;30.52;7.82;;;;;;;8.48;100.00;99631.78;10433469;28;20029;-82
2023/12/11 00:17:57;;;;;;;30.55;8.50;;;;;;;8.31;100.00;99650.31;10444779;28;20400;-82
2023/12/11 00:22:57;;;;;;;24.75;6.70;;;;;;;8.48;100.00;99644.81;10453124;28;20446;-82
2023/12/11 00:27:58;;;;;;;27.52;6.13;;;;;;;8.53;100.00;99638.09;10428626;28;20049;-82
2023/12/11 00:32:58;;;;;;;27.92;5.15;;;;;;;8.51;100.00;99635.41;10436115;28;20045;-83
2023/12/11 00:37:59;;;;;;;18.85;5.97;;;;;;;8.47;100.00;99636.09;10443509;28;20477;-82
2023/12/11 00:42:59;;;;;;;31.02;8.48;;;;;;;8.45;100.00;99636.88;10457807;28;20033;-82
2023/12/11 00:48:00;;;;;;;27.35;6.82;;;;;;;8.57;100.00;99639.97;10422449;28;20051;-83
2023/12/11 00:53:00;;;;;;;31.80;8.10;;;;;;;8.51;100.00;99643.22;10444779;28;20040;-82
2023/12/11 00:58:01;;;;;;;29.15;9.63;;;;;;;8.55;100.00;99639.03;10436193;28;20048;-82
2023/12/11 01:03:03;;;;;;;22.02;5.80;;;;;;;8.66;100.00;99627.25;10444014;28;20043;-83
2023/12/11 01:08:03;;;;;;;21.77;6.13;;;;;;;8.62;100.00;99634.91;10424285;28;20557;-82
2023/12/11 01:13:04;;;;;;;24.17;6.53;;;;;;;8.56;100.00;99629.47;10452954;28;20147;-83
2023/12/11 01:18:04;;;;;;;25.08;6.85;;;;;;;8.77;100.00;99618.94;10441574;28;20485;-82
2023/12/11 01:23:05;;;;;;;25.20;6.88;;;;;;;8.88;100.00;99612.34;10442430;28;20690;-81
2023/12/11 01:28:06;;;;;;;27.27;6.30;;;;;;;8.91;100.00;99602.03;10443371;28;20136;-82
2023/12/11 01:33:06;;;;;;;32.45;8.18;;;;;;;8.95;100.00;99600.38;10456459;28;20036;-82
2023/12/11 01:38:07;;;;;;;29.30;7.90;;;;;;;8.83;100.00;99595.66;10497047;28;20044;-82
2023/12/11 01:43:33;;;;;;;25.83;8.30;;;;;;;8.80;100.00;99593.81;10507414;28;20541;-82
2023/12/11 01:48:35;;;;;;;27.92;8.77;;;;;;;9.00;100.00;99598.81;10506802;28;20040;-82
2023/12/11 01:53:35;;;;;;;14.23;5.53;;;;;;;9.03;100.00;99574.56;10492519;28;20046;-82
2023/12/11 01:58:36;;;;;;;19.63;5.10;;;;;;;8.99;100.00;99577.91;10487935;28;20286;-82
2023/12/11 02:03:37;;;;;;;28.20;5.80;;;;;;;8.63;100.00;99611.50;10468918;28;20571;-83
2023/12/11 02:08:37;;;;;;;40.45;8.20;;;;;;;8.51;100.00;99618.88;10479782;28;20506;-82
2023/12/11 02:13:38;;;;;;;35.20;10.23;;;;;;;8.40;100.00;99610.63;10432091;28;20029;-82
2023/12/11 02:18:38;;;;;;;29.35;7.20;;;;;;;8.31;100.00;99606.00;10432676;28;20049;-82
2023/12/11 02:23:55;;;;;;;20.95;6.65;;;;;;;8.29;100.00;99601.53;10437304;28;20571;-82
2023/12/11 02:28:55;;;;;;;20.38;8.43;;;;;;;8.28;100.00;99577.19;10497518;28;20072;-83
2023/12/11 02:33:56;;;;;;;29.70;6.78;;;;;;;8.40;100.00;99568.91;10487244;28;20466;-82
2023/12/11 02:38:57;;;;;;;28.33;7.43;;;;;;;8.54;100.00;99571.16;10486065;28;20048;-83
2023/12/11 02:43:58;;;;;;;29.63;7.93;;;;;;;8.33;100.00;99553.88;10505780;28;20059;-81
2023/12/11 02:48:59;;;;;;;15.87;4.07;;;;;;;8.15;100.00;99565.44;10476872;28;20039;-81
2023/12/11 02:53:59;;;;;;;28.73;6.07;;;;;;;8.20;100.00;99553.44;10481896;28;20040;-81
2023/12/11 02:59:00;;;;;;;35.10;8.85;;;;;;;8.30;100.00;99551.16;10509885;28;20040;-81
2023/12/11 03:04:00;;;;;;;32.42;10.02;;;;;;;8.42;100.00;99525.53;10509045;28;20040;-80
2023/12/11 03:09:02;;;;;;;24.02;7.35;;;;;;;8.29;100.00;99529.44;10503913;28;20050;-80
2023/12/11 03:14:03;;;;;;;22.48;6.40;;;;;;;8.27;100.00;99514.56;10494710;28;20042;-80
2023/12/11 03:19:04;;;;;;;22.80;7.63;;;;;;;8.21;100.00;99504.84;10478031;28;20048;-80
2023/12/11 03:24:05;;;;;;;26.35;7.47;;;;;;;8.27;100.00;99498.94;10447760;28;20048;-80
2023/12/11 03:29:05;;;;;;;25.00;7.57;;;;;;;8.32;100.00;99500.88;10448153;28;20037;-80
2023/12/11 03:34:06;;;;;;;35.55;9.15;;;;;;;8.29;100.00;99507.69;10446779;28;20158;-80
2023/12/11 03:39:07;;;;;;;29.38;7.32;;;;;;;8.16;100.00;99506.38;10435342;28;20047;-81
2023/12/11 03:44:08;;;;;;;56.08;11.30;;;;;;;8.02;100.00;99504.19;10444987;28;20093;-82
2023/12/11 03:49:08;;;;;;;31.98;6.65;;;;;;;7.85;100.00;99502.69;10446667;28;20481;-81
2023/12/11 03:54:09;;;;;;;46.28;7.80;;;;;;;7.86;100.00;99507.06;10440124;28;20092;-81
2023/12/11 03:59:11;;;;;;;26.63;6.53;;;;;;;7.79;100.00;99516.34;10476085;28;20511;-81
2023/12/11 04:04:11;;;;;;;22.58;7.05;;;;;;;7.82;100.00;99515.59;10471415;28;20481;-82
2023/12/11 04:09:12;;;;;;;26.42;7.20;;;;;;;7.89;100.00;99520.19;10503004;28;20052;-81
2023/12/11 04:14:12;;;;;;;34.22;9.35;;;;;;;7.85;100.00;99521.78;10493119;28;20040;-82
2023/12/11 04:19:13;;;;;;;27.75;6.78;;;;;;;7.74;100.00;99534.41;10492200;28;20044;-82
2023/12/11 04:24:13;;;;;;;33.45;9.63;;;;;;;7.72;100.00;99522.16;10497272;28;20050;-82
2023/12/11 04:29:14;;;;;;;26.98;6.50;;;;;;;7.68;100.00;99548.91;10495469;28;20040;-82
2023/12/11 04:34:15;;;;;;;33.85;8.32;;;;;;;7.69;100.00;99548.06;10428474;28;20055;-82
2023/12/11 04:39:15;;;;;;;28.50;9.90;;;;;;;7.60;100.00;99530.41;10415986;28;20041;-82
2023/12/11 04:44:16;;;;;;;32.17;7.47;;;;;;;7.49;100.00;99541.28;10509492;28;20044;-81
2023/12/11 04:49:16;;;;;;;15.77;6.20;;;;;;;7.56;100.00;99538.94;10491449;28;20088;-82
2023/12/11 04:54:17;;;;;;;21.88;6.95;;;;;;;7.57;100.00;99535.50;10503704;28;20050;-81
2023/12/11 04:59:17;;;;;;;28.58;7.00;;;;;;;7.50;100.00;99523.94;10511877;28;20407;-82
2023/12/11 05:04:18;;;;;;;20.98;7.53;;;;;;;7.36;100.00;99528.63;10495969;28;20040;-82
2023/12/11 05:09:19;;;;;;;22.27;6.18;;;;;;;7.38;100.00;99519.16;10441447;28;20050;-82
2023/12/11 05:14:19;;;;;;;40.13;8.75;;;;;;;7.39;100.00;99514.81;10497742;28;20050;-82
2023/12/11 05:19:20;;;;;;;29.38;9.10;;;;;;;7.42;100.00;99514.94;10499926;28;20035;-85
2023/12/11 05:24:20;;;;;;;28.63;7.07;;;;;;;7.34;100.00;99499.91;10494643;28;20049;-81
2023/12/11 05:29:21;;;;;;;37.53;9.63;;;;;;;7.27;100.00;99499.63;10497790;28;20119;-82
2023/12/11 05:34:21;;;;;;;31.63;10.27;;;;;;;7.18;100.00;99500.16;10503085;28;20161;-81
2023/12/11 05:39:22;;;;;;;30.20;8.10;;;;;;;7.27;100.00;99507.44;10493404;28;20502;-82
2023/12/11 05:44:23;;;;;;;25.33;6.30;;;;;;;7.41;100.00;99497.56;10501269;28;20040;-81
2023/12/11 05:49:23;;;;;;;24.27;6.00;;;;;;;7.42;100.00;99491.53;10514539;27;20374;-81
2023/12/11 05:54:24;;;;;;;21.58;7.93;;;;;;;7.43;100.00;99494.19;10492792;28;20449;-82
2023/12/11 05:59:24;;;;;;;24.70;6.07;;;;;;;7.56;100.00;99495.53;10494191;28;20044;-82
2023/12/11 06:04:25;;;;;;;27.73;7.68;;;;;;;7.74;100.00;99495.34;10486370;28;20028;-80
2023/12/11 06:09:25;;;;;;;17.88;6.13;;;;;;;7.69;100.00;99476.06;10486208;28;20155;-79
2023/12/11 06:14:26;;;;;;;29.02;6.18;;;;;;;7.71;100.00;99461.38;10481816;28;20067;-81
2023/12/11 06:19:27;;;;;;;27.77;7.22;;;;;;;7.69;100.00;99462.13;10496456;28;20139;-81
2023/12/11 06:24:28;;;;;;;17.30;5.40;;;;;;;7.67;100.00;99450.78;10495877;28;20036;-80
2023/12/11 06:29:28;;;;;;;18.43;5.13;;;;;;;7.65;100.00;99455.94;10503563;28;20487;-79
2023/12/11 06:34:30;;;;;;;32.88;6.88;;;;;;;7.66;100.00;99434.28;10512260;28;20032;-81
2023/12/11 06:39:30;;;;;;;29.95;6.57;;;;;;;7.69;100.00;99456.94;10507187;28;20029;-81
2023/12/11 06:44:31;;;;;;;23.85;4.28;;;;;;;7.72;100.00;99462.25;10507585;28;20040;-81
2023/12/11 06:49:31;;;;;;;20.52;5.60;;;;;;;7.62;100.00;99461.91;10446375;28;20044;-81
2023/12/11 06:54:32;;;;;;;26.90;6.53;;;;;;;7.59;100.00;99467.00;10496327;28;20041;-81
2023/12/11 06:59:32;;;;;;;21.63;5.20;;;;;;;7.64;100.00;99464.59;10494969;28;20040;-81
2023/12/11 07:04:33;;;;;;;38.83;6.80;;;;;;;7.75;100.00;99458.06;10484789;28;20106;-80
2023/12/11 07:09:33;;;;;;;22.45;5.55;;;;;;;7.90;100.00;99439.47;10448927;28;20037;-80
2023/12/11 07:14:34;;;;;;;30.08;6.78;;;;;;;7.90;100.00;99434.25;10437725;28;20045;-80
2023/12/11 07:19:35;;;;;;;25.50;5.63;;;;;;;7.93;100.00;99441.31;10467720;28;20488;-80
2023/12/11 07:24:35;;;;;;;23.40;5.68;;;;;;;7.94;100.00;99443.97;10453715;28;20038;-84
2023/12/11 07:29:37;;;;;;;18.60;4.68;;;;;;;7.96;100.00;99450.94;10479074;28;20144;-84
2023/12/11 07:34:38;;;;;;;19.95;6.68;;;;;;;7.99;100.00;99462.38;10479872;28;20040;-88
2023/12/11 07:39:38;;;;;;;29.27;6.47;;;;;;;8.02;100.00;99472.00;10501656;28;20047;-82
2023/12/11 07:44:39;;;;;;;27.25;6.28;;;;;;;7.96;100.00;99487.41;10492257;28;20055;-85
2023/12/11 07:49:40;;;;;;;19.10;4.05;;;;;;;7.93;100.00;99501.22;10499410;28;20036;-83
2023/12/11 07:54:40;;;;;;;11.18;2.67;;;;;;;7.85;100.00;99526.13;10474146;28;20047;-83
2023/12/11 07:59:41;;;;;;;22.98;3.92;;;;;;;7.77;100.00;99534.53;10463172;28;20105;-84
2023/12/11 08:04:41;;;;;;;21.95;3.83;;;;;;;7.71;100.00;99538.59;10483367;28;20047;-82
2023/12/11 08:09:42;;;;;;;22.27;6.22;;;;;;;7.71;100.00;99557.75;10512081;28;20062;-80
2023/12/11 08:14:42;;;;;;;16.50;5.22;;;;;;;7.73;100.00;99553.47;10507660;28;20040;-80
2023/12/11 08:19:44;;;;;;;28.83;7.32;;;;;;;7.77;100.00;99565.78;10500498;28;20040;-83
2023/12/11 08:24:45;;;;;;;29.23;8.48;;;;;;;7.81;100.00;99578.94;10517131;28;20115;-75
2023/12/11 08:29:46;;;;;;;26.33;4.10;;;;;;;7.91;100.00;99574.09;10505439;28;20039;-77
2023/12/11 08:34:46;;;;;;;22.33;3.15;;;;;;;8.00;100.00;99586.63;10486364;28;20048;-77
2023/12/11 08:39:47;;;;;;;17.50;3.75;;;;;;;8.12;100.00;99580.09;10493286;28;20032;-77
2023/12/11 08:44:47;;;;;;;13.35;2.88;;;;;;;8.11;100.00;99589.59;10482155;28;20036;-77
2023/12/11 08:49:48;;;;;;;23.85;4.72;;;;;;;8.00;100.00;99590.91;10509637;28;20089;-77
2023/12/11 08:54:50;;;;;;;16.67;3.40;;;;;;;7.97;100.00;99601.22;10487280;28;20106;-78
2023/12/11 08:59:51;;;;;;;15.75;3.60;;;;;;;8.02;100.00;99611.00;10491082;28;20040;-78
2023/12/11 09:04:51;;;;;;;13.80;3.30;;;;;;;8.13;100.00;99618.34;10480326;28;20052;-77
2023/12/11 09:09:52;;;;;;;15.55;3.22;;;;;;;8.26;100.00;99624.88;10467595;28;20052;-78
2023/12/11 09:14:52;;;;;;;16.55;3.10;;;;;;;8.35;100.00;99635.66;10476688;28;20052;-81
2023/12/11 09:19:53;;;;;;;16.83;5.63;;;;;;;8.37;100.00;99645.31;10476436;28;20040;-80
2023/12/11 09:24:53;;;;;;;15.40;3.30;;;;;;;8.41;100.00;99661.94;10430483;28;20045;-87
2023/12/11 09:29:54;;;;;;;16.60;4.15;;;;;;;8.51;100.00;99651.06;10426161;28;20045;-84
2023/12/11 09:34:54;;;;;;;13.90;5.60;;;;;;;8.59;100.00;99660.88;10420179;28;20048;-81
2023/12/11 09:39:55;;;;;;;22.50;5.88;;;;;;;8.62;100.00;99668.81;10453004;28;20120;-80
2023/12/11 09:44:55;;;;;;;11.00;3.80;;;;;;;8.59;100.00;99674.81;10441785;28;20043;-89
2023/12/11 09:49:56;;;;;;;16.67;4.55;;;;;;;8.70;100.00;99687.38;10425406;28;20357;-82
2023/12/11 09:54:57;;;;;;;17.67;5.10;;;;;;;8.79;100.00;99688.56;10466129;28;20060;-83
2023/12/11 09:59:57;;;;;;;17.60;4.10;;;;;;;8.92;100.00;99707.28;10469532;28;20048;-83
2023/12/11 10:05:02;;;;;;;9.65;3.67;;;;;;;9.01;100.00;99710.22;10458359;28;20102;-88
2023/12/11 10:10:25;;;;;;;24.55;4.03;;;;;;;9.10;100.00;99713.13;10483225;28;20045;-86
2023/12/11 10:15:33;;;;;;;11.38;5.13;;;;;;;9.35;100.00;99737.50;10491649;28;20047;-82
2023/12/11 10:20:35;;;;;;;12.85;5.38;;;;;;;9.50;100.00;99738.84;10486157;28;20033;-81
2023/12/11 10:25:36;;;;;;;16.93;3.87;;;;;;;9.30;100.00;99748.63;10469007;28;20280;-89
2023/12/11 10:31:04;;;;;;;9.68;3.85;;;;;;;9.24;100.00;99764.94;10484828;28;20098;-86
2023/12/11 10:36:09;;;;;;;12.35;5.40;;;;;;;9.18;100.00;99778.69;10473262;28;20040;-80
2023/12/11 10:41:23;;;;;;;17.40;4.47;;;;;;;9.15;100.00;99777.69;10468778;28;20040;-83
2023/12/11 10:46:24;;;;;;;7.93;2.70;;;;;;;9.21;100.00;99785.72;10501383;28;20045;-82
2023/12/11 10:51:25;;;;;;;8.63;3.88;;;;;;;9.35;100.00;99792.31;10506863;28;20040;-84
2023/12/11 10:56:25;;;;;;;8.32;2.83;;;;;;;9.27;100.00;99804.22;10453695;28;20488;-79
2023/12/11 11:01:26;;;;;;;6.60;2.90;;;;;;;9.05;100.00;99810.41;10475323;28;20028;-83
2023/12/11 11:06:26;;;;;;;7.07;2.58;;;;;;;9.00;100.00;99812.81;10454549;28;20132;-82
2023/12/11 11:11:31;;;;;;;10.57;4.22;;;;;;;9.11;100.00;99819.34;10463375;28;20061;-81
2023/12/11 11:16:54;;;;;;;14.25;4.97;;;;;;;9.17;100.00;99818.69;10489497;28;20464;-82
2023/12/11 11:22:20;;;;;;;8.98;3.15;;;;;;;9.17;100.00;99841.28;10467134;28;20033;-80
2023/12/11 11:27:43;;;;;;;18.92;3.15;;;;;;;9.20;100.00;99825.72;10500712;28;20064;-81
2023/12/11 11:32:56;;;;;;;13.25;3.58;;;;;;;9.30;100.00;99837.41;10491795;28;20090;-82
2023/12/11 11:37:56;;;;;;;8.52;4.68;;;;;;;9.97;100.00;99835.38;10487078;28;20045;-80
2023/12/11 11:42:57;;;;;;;10.80;3.03;;;;;;;9.94;100.00;99828.28;10491110;28;20086;-80
2023/12/11 11:47:57;;;;;;;14.88;2.90;;;;;;;10.26;100.00;99824.97;10450032;28;20072;-80
2023/12/11 11:53:08;;;;;;;12.88;4.60;;;;;;;10.84;100.00;99832.91;10469255;28;20044;-80
2023/12/11 11:58:13;;;;;;;13.13;3.53;;;;;;;10.64;100.00;99840.13;10482367;28;20388;-81
2023/12/11 12:03:13;;;;;;;10.68;3.53;;;;;;;10.35;100.00;99846.19;10475178;28;20056;-81
2023/12/11 12:08:14;;;;;;;8.48;2.20;;;;;;;10.41;100.00;99858.59;10484784;28;20132;-83
2023/12/11 12:13:14;;;;;;;10.52;3.40;;;;;;;11.06;100.00;99850.09;10492723;28;20135;-81
2023/12/11 12:18:15;;;;;;;8.52;2.22;;;;;;;10.94;100.00;99847.13;10432191;28;20095;-82
2023/12/11 12:23:15;;;;;;;4.68;1.90;;;;;;;10.58;100.00;99856.53;10461811;28;20124;-80
2023/12/11 12:28:16;;;;;;;5.75;2.92;;;;;;;11.10;100.00;99878.16;10445913;28;20127;-82
2023/12/11 12:33:16;;;;;;;13.63;2.75;;;;;;;10.79;100.00;99905.16;10423590;28;20365;-80
2023/12/11 12:38:17;;;;;;;4.50;1.58;;;;;;;9.28;100.00;99930.47;10483823;28;20032;-81
2023/12/11 12:43:19;;;;;;;4.07;1.08;;;;;;;8.15;100.00;99951.16;10447077;28;20041;-81
2023/12/11 12:48:27;;;;;;;2.22;1.15;;;;;;;7.69;100.00;99962.19;10474028;28;20605;-82
2023/12/11 12:53:29;;;;;;;2.33;1.52;;;;;;;7.53;100.00;99984.94;10448820;28;20033;-82
2023/12/11 12:58:30;;;;;;;3.53;0.68;;;;;;;7.40;100.00;99990.38;10455147;28;20547;-88
2023/12/11 13:03:30;;;;;;;4.28;1.25;;;;;;;7.39;100.00;100006.81;10446054;28;20112;-85
2023/12/11 13:08:43;;;;;;;4.85;2.17;;;;;;;7.50;100.00;100008.22;10534017;27;20092;-86
2023/12/11 13:13:55;;;;;;;9.48;1.63;;;;;;;7.61;100.00;99996.59;10484925;28;20044;-87
2023/12/11 13:18:55;;;;;;;4.35;1.33;;;;;;;7.85;100.00;99984.59;10501873;28;20032;-87
2023/12/11 13:23:56;;;;;;;6.25;1.48;;;;;;;8.07;100.00;99992.56;10493309;28;20060;-87
2023/12/11 13:28:57;;;;;;;3.88;1.00;;;;;;;8.17;100.00;99972.09;10493043;28;20483;-87
2023/12/11 13:33:57;;;;;;;3.83;1.33;;;;;;;8.14;100.00;99962.41;10485123;28;20028;-87
2023/12/11 13:38:58;;;;;;;6.53;1.05;;;;;;;8.32;100.00;99967.53;10502413;28;20127;-85
2023/12/11 13:43:58;;;;;;;5.18;1.65;;;;;;;8.33;100.00;99966.72;10507729;28;20046;-84
2023/12/11 13:48:59;;;;;;;9.30;2.38;;;;;;;8.13;100.00;99972.78;10505157;28;20444;-93
2023/12/11 13:53:59;;;;;;;7.85;2.67;;;;;;;8.15;100.00;99984.16;10482803;28;20135;-84
2023/12/11 13:59:00;;;;;;;8.73;1.58;;;;;;;8.24;100.00;99995.00;10483853;28;20128;-83
2023/12/11 14:04:00;;;;;;;3.83;1.75;;;;;;;8.30;100.00;99999.56;10472026;28;20365;-83
2023/12/11 14:09:03;;;;;;;9.05;1.75;;;;;;;8.45;100.00;99999.34;10492404;28;20184;-89
2023/12/11 14:14:03;;;;;;;5.55;1.70;;;;;;;8.44;100.00;100000.16;10497287;28;20136;-83
2023/12/11 14:19:05;;;;;;;4.72;1.92;;;;;;;8.39;100.00;100023.44;10502646;28;20067;-83
2023/12/11 14:24:06;;;;;;;26.33;6.10;;;;;;;8.36;100.00;100029.41;10505121;28;20169;-83
2023/12/11 14:29:06;;;;;;;8.75;1.92;;;;;;;8.30;100.00;100038.66;10489556;28;20028;-84
2023/12/11 14:34:07;;;;;;;13.18;3.10;;;;;;;8.22;100.00;100048.78;10502213;28;20036;-84
2023/12/11 14:39:07;;;;;;;5.97;2.55;;;;;;;8.06;100.00;100068.03;10510658;28;20487;-87
2023/12/11 14:44:08;;;;;;;3.50;1.33;;;;;;;7.93;100.00;100084.84;10489762;28;20131;-84
2023/12/11 14:49:08;;;;;;;5.05;2.00;;;;;;;7.90;100.00;100101.22;10498429;28;20123;-86
2023/12/11 14:54:09;;;;;;;4.13;1.60;;;;;;;7.77;100.00;100111.91;10498631;28;20383;-85
2023/12/11 14:59:09;;;;;;;6.40;2.00;;;;;;;7.63;100.00;100121.69;10508778;28;20134;-84
2023/12/11 15:04:10;;;;;;;5.30;1.80;;;;;;;7.44;100.00;100145.94;10479287;28;20036;-83
2023/12/11 15:09:13;;;;;;;8.85;1.95;;;;;;;7.28;100.00;100157.31;10470483;28;20129;-85
2023/12/11 15:14:14;;;;;;;10.77;3.00;;;;;;;7.21;100.00;100166.50;10475394;28;20488;-83
2023/12/11 15:19:14;;;;;;;9.77;3.53;;;;;;;7.17;100.00;100182.78;10480548;28;20123;-84
2023/12/11 15:24:15;;;;;;;9.77;3.83;;;;;;;7.10;100.00;100186.81;10490455;28;20049;-85
2023/12/11 15:29:15;;;;;;;7.30;4.15;;;;;;;7.09;100.00;100195.44;10476508;28;20115;-83
2023/12/11 15:34:16;;;;;;;13.25;3.60;;;;;;;7.09;100.00;100203.22;10472461;28;20128;-81
2023/12/11 15:39:16;;;;;;;10.52;4.05;;;;;;;7.05;100.00;100216.91;10515469;27;20120;-85
2023/12/11 15:44:17;;;;;;;14.18;4.90;;;;;;;7.07;100.00;100233.50;10469869;28;20474;-85
2023/12/11 15:49:20;;;;;;;14.82;5.75;;;;;;;7.10;100.00;100238.84;10489433;28;20066;-81
2023/12/11 15:54:21;;;;;;;18.40;4.85;;;;;;;7.12;100.00;100245.03;10489993;28;20052;-80
2023/12/11 15:59:22;;;;;;;23.40;5.13;;;;;;;7.12;100.00;100242.44;10502767;28;20155;-81
2023/12/11 16:04:22;;;;;;;25.33;6.82;;;;;;;7.17;100.00;100245.25;10505503;28;20041;-81
2023/12/11 16:09:23;;;;;;;23.25;9.57;;;;;;;7.10;100.00;100259.66;10509829;28;20127;-80
2023/12/11 16:14:23;;;;;;;13.57;7.55;;;;;;;7.15;100.00;100260.81;10511481;28;20463;-80
2023/12/11 16:19:24;;;;;;;25.38;7.80;;;;;;;7.17;100.00;100259.16;10521790;28;20128;-81
2023/12/11 16:24:24;;;;;;;22.88;9.45;;;;;;;7.16;100.00;100270.41;10499343;28;20052;-80
2023/12/11 16:29:25;;;;;;;14.48;7.55;;;;;;;7.18;100.00;100268.75;10516258;28;20127;-81
2023/12/11 16:34:27;;;;;;;14.18;7.45;;;;;;;7.19;100.00;100273.16;10495125;28;20452;-81
2023/12/11 16:39:28;;;;;;;23.75;9.65;;;;;;;7.20;100.00;100274.03;10487999;28;20044;-81
2023/12/11 16:44:28;;;;;;;20.35;9.32;;;;;;;7.19;100.00;100275.75;10512230;28;20115;-82
2023/12/11 16:49:29;;;;;;;23.98;11.63;;;;;;;7.24;100.00;100280.31;10484963;28;20151;-80
2023/12/11 16:54:29;;;;;;;17.20;9.88;;;;;;;7.27;100.00;100286.56;10510450;28;20168;-80
2023/12/11 16:59:30;;;;;;;22.15;9.98;;;;;;;7.28;100.00;100285.72;10499923;28;20124;-80
2023/12/11 17:04:30;;;;;;;21.15;10.10;;;;;;;7.28;100.00;100282.25;10490900;28;20212;-80
2023/12/11 17:09:31;;;;;;;26.55;9.38;;;;;;;7.27;100.00;100286.56;10476522;28;20122;-80
2023/12/11 17:14:31;;;;;;;23.80;9.27;;;;;;;7.25;100.00;100296.00;10505369;28;20075;-80
2023/12/11 17:19:32;;;;;;;28.23;8.48;;;;;;;7.22;100.00;100298.44;10492645;28;20448;-80
2023/12/11 17:24:37;;;;;;;24.90;7.88;;;;;;;7.21;100.00;100301.84;10477020;28;20036;-79
2023/12/11 17:29:38;;;;;;;12.45;7.30;;;;;;;7.22;100.00;100300.16;10495534;28;20093;-81
2023/12/11 17:34:39;;;;;;;16.23;8.25;;;;;;;7.17;100.00;100295.59;10500980;28;20101;-80
2023/12/11 17:39:39;;;;;;;23.02;7.40;;;;;;;7.20;100.00;100300.06;10503287;28;20044;-80
2023/12/11 17:44:40;;;;;;;13.10;5.82;;;;;;;7.27;100.00;100303.91;10505823;28;20120;-80
2023/12/11 17:49:40;;;;;;;18.60;8.63;;;;;;;7.27;100.00;100316.91;10499081;28;20042;-81
2023/12/11 17:54:41;;;;;;;20.23;7.03;;;;;;;7.28;100.00;100314.38;10488862;28;20124;-81
2023/12/11 17:59:42;;;;;;;13.77;6.38;;;;;;;7.34;100.00;100316.41;10484710;28;20123;-81
2023/12/11 18:04:44;;;;;;;18.42;6.10;;;;;;;7.37;100.00;100315.66;10492037;28;20040;-81
2023/12/11 18:09:44;;;;;;;12.23;7.43;;;;;;;7.31;100.00;100321.47;10482021;28;20119;-80
2023/12/11 18:14:46;;;;;;;16.83;6.30;;;;;;;7.34;100.00;100322.50;10497840;28;20055;-80
2023/12/11 18:19:46;;;;;;;9.60;5.20;;;;;;;7.37;100.00;100333.88;10509772;28;20085;-80
2023/12/11 18:24:47;;;;;;;19.92;6.07;;;;;;;7.34;100.00;100345.94;10491606;28;20177;-80
2023/12/11 18:29:47;;;;;;;11.57;4.88;;;;;;;7.34;100.00;100339.84;10480495;28;20127;-81
2023/12/11 18:34:48;;;;;;;19.35;5.78;;;;;;;7.29;100.00;100336.97;10492306;28;20052;-81
2023/12/11 18:39:48;;;;;;;14.40;4.32;;;;;;;7.29;100.00;100351.72;10479777;28;20438;-80
2023/12/11 18:44:49;;;;;;;13.88;4.15;;;;;;;7.28;100.00;100355.13;10496795;28;20036;-81
2023/12/11 18:49:50;;;;;;;11.68;5.18;;;;;;;7.16;100.00;100350.16;10499013;28;20252;-79
2023/12/11 18:54:51;;;;;;;11.70;4.13;;;;;;;6.99;100.00;100347.56;10481324;28;20127;-79
2023/12/11 18:59:51;;;;;;;13.27;4.90;;;;;;;6.93;100.00;100355.03;10485890;28;20036;-79
2023/12/11 19:04:52;;;;;;;12.77;4.72;;;;;;;6.86;100.00;100351.22;10503324;28;20040;-80
2023/12/11 19:09:52;;;;;;;16.05;5.72;;;;;;;6.61;100.00;100348.97;10504454;28;20040;-79
2023/12/11 19:14:54;;;;;;;17.45;5.85;;;;;;;6.35;100.00;100353.59;10479697;28;20120;-80
2023/12/11 19:19:55;;;;;;;18.58;5.50;;;;;;;6.04;100.00;100353.56;10502426;28;20064;-80
2023/12/11 19:24:55;;;;;;;25.23;6.82;;;;;;;5.92;100.00;100364.09;10497554;28;20551;-79
2023/12/11 19:29:56;;;;;;;20.23;7.15;;;;;;;5.78;100.00;100366.78;10485621;28;20174;-79
2023/12/11 19:34:56;;;;;;;14.23;6.25;;;;;;;5.52;100.00;100384.31;10492990;28;20123;-80
2023/12/11 19:39:57;;;;;;;19.27;5.85;;;;;;;5.31;100.00;100408.94;10482416;28;20081;-80
2023/12/11 19:44:57;;;;;;;28.45;6.38;;;;;;;5.25;100.00;100412.97;10485496;28;20548;-81
2023/12/11 19:49:58;;;;;;;19.08;6.20;;;;;;;5.17;100.00;100410.72;10499450;28;20044;-80
2023/12/11 19:55:01;;;;;;;19.30;7.30;;;;;;;4.97;100.00;100421.63;10495889;28;20043;-80
2023/12/11 20:00:02;;;;;;;19.25;8.20;;;;;;;5.00;100.00;100429.59;10500018;28;20123;-79
2023/12/11 20:05:03;;;;;;;13.23;5.60;;;;;;;4.97;100.00;100441.50;10501021;28;20040;-80
2023/12/11 20:10:06;;;;;;;16.48;6.25;;;;;;;4.79;100.00;100446.38;10497364;28;20048;-80
2023/12/11 20:15:10;;;;;;;16.50;6.97;;;;;;;4.58;100.00;100448.50;10496401;28;20036;-80
2023/12/11 20:20:11;;;;;;;16.98;6.38;;;;;;;4.62;100.00;100453.97;10505221;28;20036;-82
2023/12/11 20:25:11;;;;;;;14.75;8.43;;;;;;;4.51;100.00;100460.16;10477936;28;20396;-79
2023/12/11 20:30:13;;;;;;;16.58;7.72;;;;;;;4.43;100.00;100461.34;10500883;28;20044;-80
2023/12/11 20:35:14;;;;;;;35.25;6.53;;;;;;;4.52;100.00;100459.34;10496351;28;20040;-81
2023/12/11 20:40:15;;;;;;;18.65;7.18;;;;;;;4.48;100.00;100468.63;10504856;28;20067;-81
2023/12/11 20:45:15;;;;;;;14.88;7.93;;;;;;;4.47;100.00;100466.84;10458825;28;20049;-81
2023/12/11 20:50:16;;;;;;;21.83;6.13;;;;;;;4.66;100.00;100461.16;10470314;28;20127;-80
2023/12/11 20:55:16;;;;;;;13.63;7.40;;;;;;;4.82;100.00;100462.13;10443278;28;20112;-81
2023/12/11 21:00:17;;;;;;;12.32;7.85;;;;;;;4.94;100.00;100464.63;10442054;28;20463;-83
2023/12/11 21:05:18;;;;;;;24.08;8.43;;;;;;;5.11;100.00;100466.59;10441333;28;20190;-81
2023/12/11 21:10:18;;;;;;;21.15;8.30;;;;;;;5.27;100.00;100475.34;10423083;28;20448;-80
2023/12/11 21:15:19;;;;;;;20.65;8.13;;;;;;;5.26;100.00;100478.75;10444360;28;20132;-79
2023/12/11 21:20:19;;;;;;;17.63;6.10;;;;;;;5.39;100.00;100480.41;10406715;28;20155;-81
2023/12/11 21:25:19;;;;;;;16.05;7.72;;;;;;;5.52;100.00;100493.34;10441758;28;20491;-81
2023/12/11 21:30:20;;;;;;;13.68;4.35;;;;;;;5.62;100.00;100486.09;10408327;28;20128;-81
2023/12/11 21:35:20;;;;;;;6.47;3.42;;;;;;;5.73;100.00;100492.84;10446709;28;20115;-81
2023/12/11 21:40:21;;;;;;;9.95;3.80;;;;;;;5.77;100.00;100492.25;10440798;28;20081;-81
2023/12/11 21:45:21;;;;;;;12.10;4.88;;;;;;;5.70;100.00;100483.19;10423370;28;20626;-81
2023/12/11 21:50:22;;;;;;;14.73;5.47;;;;;;;5.70;100.00;100480.59;10445140;28;20140;-81
2023/12/11 21:55:22;;;;;;;9.93;4.60;;;;;;;5.75;100.00;100487.78;10442654;28;20064;-80
2023/12/11 22:00:23;;;;;;;10.25;5.75;;;;;;;5.68;100.00;100476.09;10441232;28;20049;-82
2023/12/11 22:05:23;;;;;;;9.23;4.55;;;;;;;5.67;100.00;100489.88;10434101;28;20111;-81
2023/12/11 22:10:24;;;;;;;16.92;5.15;;;;;;;5.82;100.00;100489.94;10457679;28;20067;-81
2023/12/11 22:15:24;;;;;;;9.98;4.03;;;;;;;5.94;100.00;100489.78;10497848;28;20071;-80
2023/12/11 22:20:25;;;;;;;14.38;5.25;;;;;;;5.96;100.00;100477.78;10459097;28;20041;-80
2023/12/11 22:25:26;;;;;;;10.57;4.35;;;;;;;5.97;100.00;100471.78;10440316;28;20544;-79
2023/12/11 22:30:26;;;;;;;6.95;3.58;;;;;;;5.93;100.00;100475.00;10428222;28;20120;-81
2023/12/11 22:35:26;;;;;;;13.35;4.75;;;;;;;5.85;100.00;100453.75;10478103;28;20037;-82
2023/12/11 22:40:27;;;;;;;10.82;4.68;;;;;;;5.76;100.00;100454.09;10499072;28;20135;-81
2023/12/11 22:45:27;;;;;;;16.25;4.45;;;;;;;5.65;100.00;100436.97;10504100;28;20040;-81
2023/12/11 22:50:28;;;;;;;10.68;2.80;;;;;;;5.60;100.00;100436.69;10503326;28;20139;-81
2023/12/11 22:55:28;;;;;;;7.38;3.45;;;;;;;5.55;100.00;100439.00;10515166;28;20074;-80
2023/12/11 23:00:31;;;;;;;11.05;4.72;;;;;;;5.55;100.00;100440.72;10531843;27;20056;-81